Bay Bridge — 3FCS5 — position and weather

sailwx.info

Track history (hours):
 
Tides and Currents Weather Stations Pressure Air Temp Water Temp Dewpoint Dewpoint Depression Visibility Wind Speed Wind Dir Waves Ship Positions

Bay Bridge

Last reported at 2015-Mar-28 17:32 UTC. Time now 2015-Mar-29 19:34 UTC.
Position N 29°41' E 122°41'.

Length 267 m; draft 12.3 m.

Type: Ship (hazmat cat A). MMSI: 354120000.

Date/timePositionNaut miles runAvg speedWind from/ knotsBaromVisibWave heightAir tempDewpointWater temp
2015-Mar-28 17:32N 29°41' E 122°41'1818.5
2015-Mar-28 16:33N 29°44' E 122°20'1312.7
2015-Mar-28 15:33N 29°53' E 122°10'1313.4
2015-Mar-28 14:33N 29°57' E 121°56'5 4.2
2015-Mar-28 13:28N 29°57' E 121°51'0 0.0
2015-Mar-28 12:31N 29°57' E 121°51'0 0.0
2015-Mar-28 11:31N 29°57' E 121°51'0 0.0
2015-Mar-28 10:25N 29°57' E 121°51'0 0.0
2015-Mar-28 09:31N 29°57' E 121°51'0 0.0
2015-Mar-28 08:22N 29°57' E 121°51'0 0.0
2015-Mar-28 07:28N 29°57' E 121°51'0 0.0
2015-Mar-28 06:31N 29°57' E 121°51'0 0.0
2015-Mar-28 05:25N 29°57' E 121°51'0 0.0
2015-Mar-28 03:28N 29°57' E 121°51'0 0.0
2015-Mar-28 02:31N 29°57' E 121°51'0 0.0
2015-Mar-28 01:31N 29°57' E 121°51'0 0.0
2015-Mar-28 00:31N 29°57' E 121°51'0 0.0
2015-Mar-27 23:31N 29°57' E 121°51'0 0.0
2015-Mar-27 22:31N 29°57' E 121°51'1 1.1
2015-Mar-27 21:33N 29°57' E 121°52'3 2.5
2015-Mar-27 20:27N 29°57' E 121°55'0 0.0
2015-Mar-27 19:33N 29°57' E 121°55'0 0.0
2015-Mar-27 18:33N 29°57' E 121°55'0 0.0
2015-Mar-27 17:33N 29°57' E 121°55'0 0.0
2015-Mar-27 16:27N 29°57' E 121°55'0 0.0
2015-Mar-27 15:21N 29°57' E 121°55'0 0.0
2015-Mar-27 14:27N 29°57' E 121°55'0 0.0
2015-Mar-27 13:33N 29°57' E 121°55'0 0.0
2015-Mar-27 12:33N 29°57' E 121°55'3 3.4
2015-Mar-27 11:34N 29°58' E 121°58'1312.6
2015-Mar-27 10:33N 29°52' E 122°12'9 9.2
2015-Mar-27 09:33N 29°46' E 122°18'9 8.1
2015-Mar-27 08:26N 29°43' E 122°29'1 0.6
2015-Mar-27 07:33N 29°43' E 122°28'0 0.3
2015-Mar-27 06:31N 29°43' E 122°28'1111.5
2015-Mar-27 05:33N 29°45' E 122°41'8113.1
2015-Mar-26 23:20N 31°06' E 122°27'911.3
2015-Mar-26 22:33N 31°07' E 122°17'1313.1
2015-Mar-26 21:33N 31°14' E 122°05'1110.7
2015-Mar-26 20:33N 31°16' E 121°52'10 9.5
2015-Mar-26 19:33N 31°20' E 121°42'2 2.3
2015-Mar-26 18:32N 31°20' E 121°39'0 0.0
2015-Mar-26 17:32N 31°20' E 121°39'0 0.0
2015-Mar-26 16:32N 31°20' E 121°39'0 0.0
2015-Mar-26 15:32N 31°20' E 121°39'0 0.0
2015-Mar-26 14:32N 31°20' E 121°39'0 0.0
2015-Mar-26 13:32N 31°20' E 121°39'0 0.0
2015-Mar-26 12:32N 31°20' E 121°39'0 0.0
2015-Mar-26 11:32N 31°20' E 121°39'0 0.0
2015-Mar-26 10:32N 31°20' E 121°39'0 0.0
2015-Mar-26 09:32N 31°20' E 121°39'0 0.0
2015-Mar-26 08:32N 31°20' E 121°39'0 0.0
2015-Mar-26 07:29N 31°20' E 121°39'0 0.0
2015-Mar-26 06:32N 31°20' E 121°39'0 0.0
2015-Mar-26 05:32N 31°20' E 121°39'0 0.0
2015-Mar-26 04:32N 31°20' E 121°39'0 0.0
2015-Mar-26 03:32N 31°20' E 121°39'0 0.0
2015-Mar-26 02:32N 31°20' E 121°39'0 0.0
2015-Mar-26 01:32N 31°20' E 121°39'0 0.0
2015-Mar-26 00:32N 31°20' E 121°39'0 0.0
2015-Mar-25 23:32N 31°20' E 121°39'0 0.0
2015-Mar-25 22:32N 31°20' E 121°39'0 0.0
2015-Mar-25 21:32N 31°20' E 121°39'0 0.0
2015-Mar-25 20:32N 31°20' E 121°39'0 0.2
2015-Mar-25 19:33N 31°20' E 121°39'2 2.4
2015-Mar-25 18:33N 31°20' E 121°42'10 9.7
2015-Mar-25 17:33N 31°16' E 121°53'1110.6
2015-Mar-25 16:34N 31°14' E 122°05'9 9.3
2015-Mar-25 15:33N 31°09' E 122°14'1110.7
2015-Mar-25 14:33N 31°07' E 122°26'1412.8
2015-Mar-25 13:28N 31°07' E 122°42'5 0.1
2015-Mar-23 11:31N 31°08' E 122°48'0 0.1
2015-Mar-23 08:16N 31°08' E 122°48'0 0.1
2015-Mar-23 05:28N 31°08' E 122°47'0 0.1
2015-Mar-23 04:22N 31°08' E 122°47'0 0.0
2015-Mar-23 02:28N 31°08' E 122°47'0 0.1
2015-Mar-23 01:13N 31°08' E 122°47'0 0.2
2015-Mar-23 00:28N 31°08' E 122°47'0 0.2
2015-Mar-22 23:31N 31°08' E 122°48'0 0.1
2015-Mar-22 22:25N 31°08' E 122°48'0 0.1
2015-Mar-22 21:16N 31°08' E 122°48'0 0.1
2015-Mar-22 20:25N 31°08' E 122°48'2 1.8
2015-Mar-22 19:33N 31°07' E 122°49'1414.0
2015-Mar-22 18:34N 31°19' E 122°57'1918.7
2015-Mar-22 17:33N 31°37' E 123°04'1818.3
2015-Mar-22 16:33N 31°54' E 123°11'1818.2
2015-Mar-22 15:33N 32°11' E 123°17'1918.8
2015-Mar-22 14:33N 32°30' E 123°17'2020.5
2015-Mar-22 13:34N 32°50' E 123°17'5421.6
2015-Mar-22 11:04N 33°44' E 123°17'17918.4
2015-Mar-22 01:18N 35°54' E 120°46'1519.5
2015-Mar-22 00:33N 35°59' E 120°29'1313.2
2015-Mar-21 23:33N 36°01' E 120°13'0 0.3
2015-Mar-21 22:15N 36°01' E 120°13'0 0.0
2015-Mar-21 21:09N 36°01' E 120°13'0 0.0
2015-Mar-21 20:33N 36°01' E 120°13'0 0.0
2015-Mar-21 18:09N 36°01' E 120°13'0 0.0
2015-Mar-21 11:21N 36°01' E 120°13'5 6.8
2015-Mar-21 10:33N 36°02' E 120°19'1616.0
2015-Mar-21 09:32N 35°58' E 120°39'19 1.8
2015-Mar-20 23:09N 35°49' E 120°59'0 0.0
2015-Mar-20 14:15N 35°49' E 120°59'  
Track history (hours):
 
Tides and Currents Weather Stations Pressure Air Temp Water Temp Dewpoint Dewpoint Depression Visibility Wind Speed Wind Dir Waves Ship Positions

Bay Bridge

Last reported at 2015-Mar-28 17:32 UTC. Time now 2015-Mar-29 19:34 UTC.
Position N 29°41' E 122°41'.

Length 267 m; draft 12.3 m.

Type: Ship (hazmat cat A). MMSI: 354120000.

Date/timePositionNaut miles runAvg speedWind from/ knotsBaromVisibWave heightAir tempDewpointWater temp
2015-Mar-28 17:32N 29°41' E 122°41'1818.5
2015-Mar-28 16:33N 29°44' E 122°20'1312.7
2015-Mar-28 15:33N 29°53' E 122°10'1313.4
2015-Mar-28 14:33N 29°57' E 121°56'5 4.2
2015-Mar-28 13:28N 29°57' E 121°51'0 0.0
2015-Mar-28 12:31N 29°57' E 121°51'0 0.0
2015-Mar-28 11:31N 29°57' E 121°51'0 0.0
2015-Mar-28 10:25N 29°57' E 121°51'0 0.0
2015-Mar-28 09:31N 29°57' E 121°51'0 0.0
2015-Mar-28 08:22N 29°57' E 121°51'0 0.0
2015-Mar-28 07:28N 29°57' E 121°51'0 0.0
2015-Mar-28 06:31N 29°57' E 121°51'0 0.0
2015-Mar-28 05:25N 29°57' E 121°51'0 0.0
2015-Mar-28 03:28N 29°57' E 121°51'0 0.0
2015-Mar-28 02:31N 29°57' E 121°51'0 0.0
2015-Mar-28 01:31N 29°57' E 121°51'0 0.0
2015-Mar-28 00:31N 29°57' E 121°51'0 0.0
2015-Mar-27 23:31N 29°57' E 121°51'0 0.0
2015-Mar-27 22:31N 29°57' E 121°51'1 1.1
2015-Mar-27 21:33N 29°57' E 121°52'3 2.5
2015-Mar-27 20:27N 29°57' E 121°55'0 0.0
2015-Mar-27 19:33N 29°57' E 121°55'0 0.0
2015-Mar-27 18:33N 29°57' E 121°55'0 0.0
2015-Mar-27 17:33N 29°57' E 121°55'0 0.0
2015-Mar-27 16:27N 29°57' E 121°55'0 0.0
2015-Mar-27 15:21N 29°57' E 121°55'0 0.0
2015-Mar-27 14:27N 29°57' E 121°55'0 0.0
2015-Mar-27 13:33N 29°57' E 121°55'0 0.0
2015-Mar-27 12:33N 29°57' E 121°55'3 3.4
2015-Mar-27 11:34N 29°58' E 121°58'1312.6
2015-Mar-27 10:33N 29°52' E 122°12'9 9.2
2015-Mar-27 09:33N 29°46' E 122°18'9 8.1
2015-Mar-27 08:26N 29°43' E 122°29'1 0.6
2015-Mar-27 07:33N 29°43' E 122°28'0 0.3
2015-Mar-27 06:31N 29°43' E 122°28'1111.5
2015-Mar-27 05:33N 29°45' E 122°41'8113.1
2015-Mar-26 23:20N 31°06' E 122°27'911.3
2015-Mar-26 22:33N 31°07' E 122°17'1313.1
2015-Mar-26 21:33N 31°14' E 122°05'1110.7
2015-Mar-26 20:33N 31°16' E 121°52'10 9.5
2015-Mar-26 19:33N 31°20' E 121°42'2 2.3
2015-Mar-26 18:32N 31°20' E 121°39'0 0.0
2015-Mar-26 17:32N 31°20' E 121°39'0 0.0
2015-Mar-26 16:32N 31°20' E 121°39'0 0.0
2015-Mar-26 15:32N 31°20' E 121°39'0 0.0
2015-Mar-26 14:32N 31°20' E 121°39'0 0.0
2015-Mar-26 13:32N 31°20' E 121°39'0 0.0
2015-Mar-26 12:32N 31°20' E 121°39'0 0.0
2015-Mar-26 11:32N 31°20' E 121°39'0 0.0
2015-Mar-26 10:32N 31°20' E 121°39'0 0.0
2015-Mar-26 09:32N 31°20' E 121°39'0 0.0
2015-Mar-26 08:32N 31°20' E 121°39'0 0.0
2015-Mar-26 07:29N 31°20' E 121°39'0 0.0
2015-Mar-26 06:32N 31°20' E 121°39'0 0.0
2015-Mar-26 05:32N 31°20' E 121°39'0 0.0
2015-Mar-26 04:32N 31°20' E 121°39'0 0.0
2015-Mar-26 03:32N 31°20' E 121°39'0 0.0
2015-Mar-26 02:32N 31°20' E 121°39'0 0.0
2015-Mar-26 01:32N 31°20' E 121°39'0 0.0
2015-Mar-26 00:32N 31°20' E 121°39'0 0.0
2015-Mar-25 23:32N 31°20' E 121°39'0 0.0
2015-Mar-25 22:32N 31°20' E 121°39'0 0.0
2015-Mar-25 21:32N 31°20' E 121°39'0 0.0
2015-Mar-25 20:32N 31°20' E 121°39'0 0.2
2015-Mar-25 19:33N 31°20' E 121°39'2 2.4
2015-Mar-25 18:33N 31°20' E 121°42'10 9.7
2015-Mar-25 17:33N 31°16' E 121°53'1110.6
2015-Mar-25 16:34N 31°14' E 122°05'9 9.3
2015-Mar-25 15:33N 31°09' E 122°14'1110.7
2015-Mar-25 14:33N 31°07' E 122°26'1412.8
2015-Mar-25 13:28N 31°07' E 122°42'5 0.1
2015-Mar-23 11:31N 31°08' E 122°48'0 0.1
2015-Mar-23 08:16N 31°08' E 122°48'0 0.1
2015-Mar-23 05:28N 31°08' E 122°47'0 0.1
2015-Mar-23 04:22N 31°08' E 122°47'0 0.0
2015-Mar-23 02:28N 31°08' E 122°47'0 0.1
2015-Mar-23 01:13N 31°08' E 122°47'0 0.2
2015-Mar-23 00:28N 31°08' E 122°47'0 0.2
2015-Mar-22 23:31N 31°08' E 122°48'0 0.1
2015-Mar-22 22:25N 31°08' E 122°48'0 0.1
2015-Mar-22 21:16N 31°08' E 122°48'0 0.1
2015-Mar-22 20:25N 31°08' E 122°48'2 1.8
2015-Mar-22 19:33N 31°07' E 122°49'1414.0
2015-Mar-22 18:34N 31°19' E 122°57'1918.7
2015-Mar-22 17:33N 31°37' E 123°04'1818.3
2015-Mar-22 16:33N 31°54' E 123°11'1818.2
2015-Mar-22 15:33N 32°11' E 123°17'1918.8
2015-Mar-22 14:33N 32°30' E 123°17'2020.5
2015-Mar-22 13:34N 32°50' E 123°17'5421.6
2015-Mar-22 11:04N 33°44' E 123°17'17918.4
2015-Mar-22 01:18N 35°54' E 120°46'1519.5
2015-Mar-22 00:33N 35°59' E 120°29'1313.2
2015-Mar-21 23:33N 36°01' E 120°13'0 0.3
2015-Mar-21 22:15N 36°01' E 120°13'0 0.0
2015-Mar-21 21:09N 36°01' E 120°13'0 0.0
2015-Mar-21 20:33N 36°01' E 120°13'0 0.0
2015-Mar-21 18:09N 36°01' E 120°13'0 0.0
2015-Mar-21 11:21N 36°01' E 120°13'5 6.8
2015-Mar-21 10:33N 36°02' E 120°19'1616.0
2015-Mar-21 09:32N 35°58' E 120°39'19 1.8
2015-Mar-20 23:09N 35°49' E 120°59'0 0.0
2015-Mar-20 14:15N 35°49' E 120°59'  

Dump ship's entire track history